Amenia, NY

1:14 AM EDT on July 01, 2015 (GMT -0400)
Pine plains ny | | Change Station
CLOSE
Current Station
Personal Weather Station
Location: Pine Plains, NY
Elevation: 997 ft
Nearby Weather Stations

Elev 997 ft 41.90 °N, 73.60 °W | Updated 20 seconds ago

Rain
Rain
65.6 °F
Feels Like 65.6 °F
N
5.0
Wind Variable Wind from ENE
Gusts 8.0 mph

Today
High -- | Low -- °F
--% Chance of Precip.
Yesterday
High -- | Low -- °F
Precip. -- in
5:22 AM 8:33 PM
Waxing Gibbous, 99% visible
Pressure 29.83 in
Visibility 10.0 miles
Clouds Mostly Cloudy 2000 ft
Overcast 3000 ft
Dew Point 64 °F
Humidity 95%
Rainfall 0.04 in
Snow Depth Not available.
UV 0 out of 12
Pollen 3.10 out of 12
Air Quality Not available.
Flu Activity Not available.
METAR KPOU 010353Z 14004KT 10SM BKN020 OVC030 23/18 A2984 RMK AO2 LTG DSNT W SLP101 T02280183

More Conditions Fewer Conditions

Pressure 29.83 in
Visibility 10.0 miles
Clouds Mostly Cloudy 2000 ft
Overcast 3000 ft
Dew Point 64 °F
Humidity 95%
Rainfall 0.04 in
Snow Depth Not available.
UV 0 out of 12
Pollen 3.10 out of 12
Air Quality Not available.
Flu Activity Not available.
METAR KPOU 010353Z 14004KT 10SM BKN020 OVC030 23/18 A2984 RMK AO2 LTG DSNT W SLP101 T02280183

More Conditions Fewer Conditions

10-Day Weather Forecast

×

Almanac

Astronomy

Jul. 01, 2015 Rise Set
Actual Time
Civil Twilight
Nautical Twilight
Astronomical Twilight
Moon
Length of Visible Light
Length of Day
Tomorrow will be .
, % of the Moon is Illuminated

Today's Extremes

State Highs State Lows

Community

WunderPhotos

Upload Photos

1,834,148 photos uploaded!

WunderBlogs® & News

Nearby

Air Quality

  Air Quality AQ Index Pollutant
Not available.

Snow Depth

Station Depth Elevation

Earthquake Activity

City Distance Mag. Time & Date
Minimum magnitude displayed is 2.5.

Coastal Water Temperatures

Place Temperature

Stations

Nearby Weather Stations

Station Location Temp. Windchill Dew Point Humidity Wind Precip. Elev Updated Type